首页
METAR-TAF:

METAR-TAF

机场 :

科托卡国际机场

阿克拉, 加纳

纬度: 05-36N, 经度: 000-10W, 海拔: 68米

当前天气观测

该预报发布于1小时和10分钟前的07:00 UTC
风速7节,风向西
温度 25°C
湿度 89%
气压 1012 hPa
能见度10公里或以上
少量云层高于3000英尺, 积雨云.
附近有雷暴

METAR: DGAA 270700Z 28007KT 9999 VCTS FEW030CB 25/23 Q1012 NOSIG

时间: 08:10 (08:10 UTC)

预报

该预报发布于3小时和10分钟前的05:00 UTC
预报有效从27日的 06点(UTC)到 28日的 12点(UTC)
风速6节,风向西
能见度10公里或以上
散云层高于1200英尺
多云层高于2000英尺, 积雨云.
几率 40%
从 27日的 09点(UTC)到 27日的 13点(UTC)
能見度: 5000
雷暴, 雨
成为
从 27日的 12点(UTC)到 27日的 14点(UTC)
风速15节,风向南转西南
从 28日的 0200点(UTC)
风速7节,风向西
能见度10公里或以上
1500米以下无云,无积雨云

TAF: DGAA 270500Z 2706/2812 27006KT 9999 SCT012 BKN020CB PROB40 2709/2713 5000 TSRA BECMG 2712/2714 21015KT FM280200 26007KT CAVOK

超过4000个机场的气象观测和天气预报(METAR&TAF报告)。

可查询的气象台以黄色和红色小点在地图上表示。

将鼠标移到小点上方,可查看气象台名称。

然后点击查看天气观测和预报。

如需切换地图:点击带黑十字的绿色按钮放大地图;点击带横线的绿色按钮缩小地图;或者点击绿色箭头查看邻近地区的地图。


METAR-TAF: